| Date | Time | Temp. (oF) | Dew Point (oF) | Rel. Hum. (%) | Press. (in.) | Wind Dir. | Wind Speed (mph) | Hourly Rainfall (in.) |
|
|---|---|---|---|---|---|---|---|---|---|
| 1 | 02/26 | 00:00 | 32 | 21 | 65 | 30.19 | N | 5 | 0.00 |
| 2 | 02/25 | 23:00 | 33 | 20 | 60 | 30.16 | WNW | 17 | 0.00 |
| 3 | 02/25 | 22:00 | 34 | 23 | 64 | 30.13 | WNW | 11 | 0.00 |
| 4 | 02/25 | 21:00 | 33 | 20 | 61 | 30.08 | NW | 7 | 0.00 |
| 5 | 02/25 | 20:00 | 34 | 20 | 58 | 30.05 | SSW | 12 | 0.00 |
| 6 | 02/25 | 19:00 | 34 | 19 | 55 | 30.02 | W | 13 | 0.00 |
| 7 | 02/25 | 18:00 | 35 | 19 | 52 | 29.96 | SSW | 13 | 0.00 |
| 8 | 02/25 | 17:00 | 36 | 19 | 50 | 29.91 | W | 32 | 0.00 |
| 9 | 02/25 | 16:00 | 37 | 19 | 48 | 29.85 | WSW | 11 | 0.00 |
| 10 | 02/25 | 15:00 | 40 | 22 | 49 | 29.81 | WSW | 12 | 0.00 |
| 11 | 02/25 | 14:00 | 39 | 21 | 50 | 29.79 | SW | 13 | 0.00 |
| 12 | 02/25 | 13:00 | 40 | 24 | 53 | 29.78 | WSW | 10 | 0.00 |
| 13 | 02/25 | 12:00 | 39 | 25 | 57 | 29.78 | SSW | 15 | 0.00 |
| 14 | 02/25 | 11:00 | 38 | 24 | 59 | 29.78 | SW | 15 | 0.00 |
| 15 | 02/25 | 10:00 | 37 | 22 | 56 | 29.77 | W | 8 | 0.00 |
| 16 | 02/25 | 09:00 | 36 | 27 | 71 | 29.75 | SW | 13 | 0.00 |
| 17 | 02/25 | 08:00 | 35 | 26 | 70 | 29.73 | SW | 7 | 0.00 |
| 18 | 02/25 | 07:00 | 34 | 26 | 75 | 29.71 | SW | 9 | 0.00 |
| 19 | 02/25 | 06:00 | 34 | 26 | 75 | 29.70 | SW | 7 | 0.00 |
| 20 | 02/25 | 05:00 | 34 | 26 | 75 | 29.67 | SSW | 9 | 0.00 |
| 21 | 02/25 | 04:00 | 34 | 27 | 78 | 29.65 | SSW | 9 | 0.00 |
| 22 | 02/25 | 03:00 | 35 | 28 | 76 | 29.64 | SW | 14 | 0.00 |
| 23 | 02/25 | 02:00 | 37 | 27 | 69 | 29.62 | SW | 4 | 0.00 |
| 24 | 02/25 | 01:00 | 38 | 28 | 69 | 29.62 | WNW | 10 | 0.00 |